sensor_id;sensor_type;location;lat;lon;timestamp;pressure;altitude;pressure_sealevel;temperature;humidity
38253;BME280;24785;52.372;20.672;2022-11-18T00:00:22;99780.38;;;-2.51;100.00
38253;BME280;24785;52.372;20.672;2022-11-18T00:10:37;99767.84;;;-2.42;100.00
38253;BME280;24785;52.372;20.672;2022-11-18T00:20:39;99762.63;;;-2.36;100.00
38253;BME280;24785;52.372;20.672;2022-11-18T00:30:40;99763.41;;;-2.29;100.00
38253;BME280;24785;52.372;20.672;2022-11-18T00:40:40;99753.09;;;-2.24;100.00
38253;BME280;24785;52.372;20.672;2022-11-18T00:50:42;99742.78;;;-2.18;100.00
38253;BME280;24785;52.372;20.672;2022-11-18T01:00:44;99745.59;;;-2.13;100.00
38253;BME280;24785;52.372;20.672;2022-11-18T01:10:46;99749.63;;;-2.11;100.00
38253;BME280;24785;52.372;20.672;2022-11-18T01:20:49;99746.50;;;-1.95;100.00
38253;BME280;24785;52.372;20.672;2022-11-18T01:30:50;99746.88;;;-1.78;100.00
38253;BME280;24785;52.372;20.672;2022-11-18T01:40:51;99736.50;;;-1.66;100.00
38253;BME280;24785;52.372;20.672;2022-11-18T01:51:04;99739.88;;;-1.59;100.00
38253;BME280;24785;52.372;20.672;2022-11-18T02:01:06;99727.94;;;-1.55;100.00
38253;BME280;24785;52.372;20.672;2022-11-18T02:11:12;99719.03;;;-1.85;100.00
38253;BME280;24785;52.372;20.672;2022-11-18T02:21:50;99721.50;;;-2.04;100.00
38253;BME280;24785;52.372;20.672;2022-11-18T02:31:59;99722.59;;;-2.25;100.00
38253;BME280;24785;52.372;20.672;2022-11-18T02:42:05;99724.25;;;-2.37;100.00
38253;BME280;24785;52.372;20.672;2022-11-18T02:52:09;99722.03;;;-2.40;100.00
38253;BME280;24785;52.372;20.672;2022-11-18T03:02:15;99723.06;;;-2.47;100.00
38253;BME280;24785;52.372;20.672;2022-11-18T03:33:11;99709.22;;;-2.81;100.00
38253;BME280;24785;52.372;20.672;2022-11-18T03:43:18;99700.13;;;-2.72;100.00
38253;BME280;24785;52.372;20.672;2022-11-18T03:53:24;99693.25;;;-2.66;100.00
38253;BME280;24785;52.372;20.672;2022-11-18T04:03:26;99708.97;;;-2.60;100.00
38253;BME280;24785;52.372;20.672;2022-11-18T04:13:34;99702.72;;;-2.59;100.00
38253;BME280;24785;52.372;20.672;2022-11-18T04:23:36;99703.50;;;-2.58;100.00
38253;BME280;24785;52.372;20.672;2022-11-18T04:33:37;99705.72;;;-2.55;100.00
38253;BME280;24785;52.372;20.672;2022-11-18T04:43:38;99701.91;;;-2.59;100.00
38253;BME280;24785;52.372;20.672;2022-11-18T04:53:39;99692.03;;;-2.64;100.00
38253;BME280;24785;52.372;20.672;2022-11-18T05:03:40;99704.94;;;-2.62;100.00
38253;BME280;24785;52.372;20.672;2022-11-18T05:13:41;99701.72;;;-2.64;100.00
38253;BME280;24785;52.372;20.672;2022-11-18T05:23:42;99690.00;;;-2.62;100.00
38253;BME280;24785;52.372;20.672;2022-11-18T05:33:43;99685.19;;;-2.65;100.00
38253;BME280;24785;52.372;20.672;2022-11-18T05:43:44;99687.00;;;-2.65;100.00
38253;BME280;24785;52.372;20.672;2022-11-18T05:53:47;99684.19;;;-2.70;100.00
38253;BME280;24785;52.372;20.672;2022-11-18T06:03:50;99681.34;;;-2.69;100.00
38253;BME280;24785;52.372;20.672;2022-11-18T06:14:00;99690.63;;;-2.66;100.00
38253;BME280;24785;52.372;20.672;2022-11-18T06:24:03;99689.22;;;-2.69;100.00
38253;BME280;24785;52.372;20.672;2022-11-18T06:34:05;99692.63;;;-2.62;100.00
38253;BME280;24785;52.372;20.672;2022-11-18T06:44:06;99702.91;;;-2.60;100.00
38253;BME280;24785;52.372;20.672;2022-11-18T06:54:07;99705.75;;;-2.68;100.00
38253;BME280;24785;52.372;20.672;2022-11-18T07:04:08;99719.50;;;-2.79;100.00
38253;BME280;24785;52.372;20.672;2022-11-18T07:14:09;99728.38;;;-2.94;100.00
38253;BME280;24785;52.372;20.672;2022-11-18T07:24:13;99729.78;;;-2.98;100.00
38253;BME280;24785;52.372;20.672;2022-11-18T07:34:14;99726.34;;;-3.05;100.00
38253;BME280;24785;52.372;20.672;2022-11-18T07:44:15;99732.19;;;-2.96;100.00
38253;BME280;24785;52.372;20.672;2022-11-18T07:54:17;99738.03;;;-2.68;100.00
38253;BME280;24785;52.372;20.672;2022-11-18T08:04:18;99738.84;;;-2.67;100.00
38253;BME280;24785;52.372;20.672;2022-11-18T08:14:19;99737.22;;;-2.68;100.00
38253;BME280;24785;52.372;20.672;2022-11-18T08:24:21;99748.53;;;-2.74;100.00
38253;BME280;24785;52.372;20.672;2022-11-18T08:34:22;99745.66;;;-2.33;100.00
38253;BME280;24785;52.372;20.672;2022-11-18T08:44:23;99751.22;;;-2.10;100.00
38253;BME280;24785;52.372;20.672;2022-11-18T08:54:24;99762.84;;;-1.79;97.81
38253;BME280;24785;52.372;20.672;2022-11-18T09:04:25;99766.25;;;-1.34;94.74
38253;BME280;24785;52.372;20.672;2022-11-18T09:14:26;99764.75;;;-0.99;91.93
38253;BME280;24785;52.372;20.672;2022-11-18T09:24:27;99757.47;;;-0.97;89.95
38253;BME280;24785;52.372;20.672;2022-11-18T09:34:28;99758.34;;;-1.34;88.02
38253;BME280;24785;52.372;20.672;2022-11-18T09:54:46;99754.25;;;-0.99;85.12
38253;BME280;24785;52.372;20.672;2022-11-18T10:04:47;99761.84;;;-1.47;85.80
38253;BME280;24785;52.372;20.672;2022-11-18T10:15:13;99759.00;;;-1.14;86.50
38253;BME280;24785;52.372;20.672;2022-11-18T10:25:18;99763.78;;;-1.29;84.66
38253;BME280;24785;52.372;20.672;2022-11-18T10:35:35;99772.75;;;-1.43;85.55
38253;BME280;24785;52.372;20.672;2022-11-18T10:45:36;99778.84;;;-1.49;86.58
38253;BME280;24785;52.372;20.672;2022-11-18T11:05:44;99806.31;;;-1.45;83.75
38253;BME280;24785;52.372;20.672;2022-11-18T11:15:46;99808.13;;;-1.39;85.69
38253;BME280;24785;52.372;20.672;2022-11-18T11:26:13;99810.91;;;-1.34;83.93
38253;BME280;24785;52.372;20.672;2022-11-18T11:36:31;99809.28;;;-1.29;82.44
38253;BME280;24785;52.372;20.672;2022-11-18T11:56:50;99805.91;;;-1.49;82.52
38253;BME280;24785;52.372;20.672;2022-11-18T12:06:53;99807.59;;;-1.61;87.18
38253;BME280;24785;52.372;20.672;2022-11-18T12:17:04;99817.59;;;-1.83;92.11
38253;BME280;24785;52.372;20.672;2022-11-18T12:57:39;99812.97;;;-1.43;86.60
38253;BME280;24785;52.372;20.672;2022-11-18T13:07:45;99818.47;;;-1.51;86.96
38253;BME280;24785;52.372;20.672;2022-11-18T13:18:17;99830.22;;;-1.60;89.46
38253;BME280;24785;52.372;20.672;2022-11-18T13:28:33;99831.03;;;-1.60;91.04
38253;BME280;24785;52.372;20.672;2022-11-18T13:38:36;99825.06;;;-1.80;90.33
38253;BME280;24785;52.372;20.672;2022-11-18T13:48:43;99831.75;;;-1.84;89.80
38253;BME280;24785;52.372;20.672;2022-11-18T14:08:50;99853.25;;;-1.55;88.76
38253;BME280;24785;52.372;20.672;2022-11-18T14:18:52;99877.38;;;-1.78;93.64
38253;BME280;24785;52.372;20.672;2022-11-18T14:28:59;99868.31;;;-1.96;99.28
38253;BME280;24785;52.372;20.672;2022-11-18T14:39:00;99877.63;;;-2.13;100.00
38253;BME280;24785;52.372;20.672;2022-11-18T14:49:03;99883.72;;;-2.19;100.00
38253;BME280;24785;52.372;20.672;2022-11-18T14:59:06;99904.50;;;-2.44;100.00
38253;BME280;24785;52.372;20.672;2022-11-18T15:09:06;99911.94;;;-2.54;100.00
38253;BME280;24785;52.372;20.672;2022-11-18T15:19:12;99927.88;;;-2.62;100.00
38253;BME280;24785;52.372;20.672;2022-11-18T15:29:19;99932.50;;;-2.77;100.00
38253;BME280;24785;52.372;20.672;2022-11-18T15:39:20;99927.88;;;-2.82;100.00
38253;BME280;24785;52.372;20.672;2022-11-18T15:49:21;99948.78;;;-2.89;100.00
38253;BME280;24785;52.372;20.672;2022-11-18T15:59:22;99975.00;;;-2.89;100.00
38253;BME280;24785;52.372;20.672;2022-11-18T16:09:23;99988.72;;;-2.93;100.00
38253;BME280;24785;52.372;20.672;2022-11-18T16:19:25;99994.53;;;-2.98;100.00
38253;BME280;24785;52.372;20.672;2022-11-18T16:29:26;100016.72;;;-3.00;100.00
38253;BME280;24785;52.372;20.672;2022-11-18T16:39:27;100016.69;;;-3.07;100.00
38253;BME280;24785;52.372;20.672;2022-11-18T16:49:28;100020.47;;;-3.16;100.00
38253;BME280;24785;52.372;20.672;2022-11-18T16:59:30;100023.59;;;-3.34;100.00
38253;BME280;24785;52.372;20.672;2022-11-18T17:09:31;100025.59;;;-3.36;100.00
38253;BME280;24785;52.372;20.672;2022-11-18T17:19:32;100033.88;;;-3.32;100.00
38253;BME280;24785;52.372;20.672;2022-11-18T17:29:33;100051.22;;;-3.31;100.00
38253;BME280;24785;52.372;20.672;2022-11-18T17:39:34;100042.19;;;-3.29;100.00
38253;BME280;24785;52.372;20.672;2022-11-18T17:49:35;100046.66;;;-3.23;100.00
38253;BME280;24785;52.372;20.672;2022-11-18T17:59:36;100031.16;;;-3.18;100.00
38253;BME280;24785;52.372;20.672;2022-11-18T18:09:37;100048.31;;;-3.15;97.60
38253;BME280;24785;52.372;20.672;2022-11-18T18:19:38;100038.41;;;-3.20;97.48
38253;BME280;24785;52.372;20.672;2022-11-18T18:29:39;100046.50;;;-3.14;96.47
38253;BME280;24785;52.372;20.672;2022-11-18T18:39:40;100042.44;;;-3.17;95.31
38253;BME280;24785;52.372;20.672;2022-11-18T18:49:40;100045.88;;;-3.17;94.80
38253;BME280;24785;52.372;20.672;2022-11-18T18:59:41;100065.03;;;-3.16;93.60
38253;BME280;24785;52.372;20.672;2022-11-18T19:09:42;100068.31;;;-3.07;93.05
38253;BME280;24785;52.372;20.672;2022-11-18T19:19:43;100061.88;;;-3.05;92.73
38253;BME280;24785;52.372;20.672;2022-11-18T19:30:03;100073.16;;;-3.04;92.87
38253;BME280;24785;52.372;20.672;2022-11-18T19:40:05;100086.50;;;-2.99;92.73
38253;BME280;24785;52.372;20.672;2022-11-18T19:50:06;100092.94;;;-3.02;91.36
38253;BME280;24785;52.372;20.672;2022-11-18T20:00:08;100097.78;;;-2.99;85.76
38253;BME280;24785;52.372;20.672;2022-11-18T20:10:09;100096.59;;;-2.96;80.15
38253;BME280;24785;52.372;20.672;2022-11-18T20:20:10;100093.78;;;-2.95;79.55
38253;BME280;24785;52.372;20.672;2022-11-18T20:30:11;100106.16;;;-3.17;87.03
38253;BME280;24785;52.372;20.672;2022-11-18T20:40:12;100116.72;;;-3.31;89.95
38253;BME280;24785;52.372;20.672;2022-11-18T20:50:13;100113.63;;;-3.41;89.81
38253;BME280;24785;52.372;20.672;2022-11-18T21:00:14;100122.28;;;-3.41;89.96
38253;BME280;24785;52.372;20.672;2022-11-18T21:10:16;100124.72;;;-3.39;87.83
38253;BME280;24785;52.372;20.672;2022-11-18T21:20:17;100124.81;;;-3.54;88.28
38253;BME280;24785;52.372;20.672;2022-11-18T21:30:36;100139.28;;;-3.58;90.51
38253;BME280;24785;52.372;20.672;2022-11-18T21:40:38;100144.28;;;-3.63;91.75
38253;BME280;24785;52.372;20.672;2022-11-18T21:50:38;100148.91;;;-3.65;91.93
38253;BME280;24785;52.372;20.672;2022-11-18T22:00:39;100151.72;;;-3.67;93.27
38253;BME280;24785;52.372;20.672;2022-11-18T22:10:46;100155.88;;;-3.72;93.49
38253;BME280;24785;52.372;20.672;2022-11-18T22:20:47;100150.13;;;-3.83;94.16
38253;BME280;24785;52.372;20.672;2022-11-18T22:30:48;100158.66;;;-3.95;94.28
38253;BME280;24785;52.372;20.672;2022-11-18T22:40:49;100170.31;;;-3.98;95.13
38253;BME280;24785;52.372;20.672;2022-11-18T22:51:04;100169.63;;;-4.06;95.67
38253;BME280;24785;52.372;20.672;2022-11-18T23:01:07;100170.00;;;-4.09;95.57
38253;BME280;24785;52.372;20.672;2022-11-18T23:11:14;100165.06;;;-4.34;96.32
38253;BME280;24785;52.372;20.672;2022-11-18T23:21:35;100164.28;;;-4.49;97.17
38253;BME280;24785;52.372;20.672;2022-11-18T23:31:41;100166.34;;;-4.59;99.32
38253;BME280;24785;52.372;20.672;2022-11-18T23:41:43;100164.03;;;-4.69;100.00
38253;BME280;24785;52.372;20.672;2022-11-18T23:51:44;100156.09;;;-4.61;100.00
